createdAt,value
2023-11-05T00:01:58.100Z,55.95
2023-11-05T00:04:26.241Z,55.67
2023-11-05T00:06:55.053Z,55.33
2023-11-05T00:09:23.358Z,55.07
2023-11-05T00:11:51.705Z,54.75
2023-11-05T00:14:20.218Z,54.45
2023-11-05T00:16:48.422Z,53.95
2023-11-05T00:19:17.995Z,53.72
2023-11-05T00:21:46.504Z,53.44
2023-11-05T00:24:14.855Z,53.00
2023-11-05T00:26:42.993Z,52.81
2023-11-05T00:29:12.676Z,52.51
2023-11-05T00:31:41.193Z,52.11
2023-11-05T00:34:09.792Z,51.99
2023-11-05T00:36:38.252Z,51.77
2023-11-05T00:39:06.615Z,51.49
2023-11-05T00:41:35.011Z,51.23
2023-11-05T00:44:05.107Z,50.94
2023-11-05T00:46:33.929Z,50.39
2023-11-05T00:49:02.396Z,49.92
2023-11-05T00:51:31.808Z,49.73
2023-11-05T00:54:00.158Z,49.32
2023-11-05T00:56:28.646Z,48.85
2023-11-05T00:58:58.518Z,48.44
2023-11-05T01:03:38.653Z,47.87
2023-11-05T01:06:07.450Z,47.48
2023-11-05T01:08:35.798Z,47.29
2023-11-05T01:11:04.529Z,47.32
2023-11-05T01:13:33.565Z,47.11
2023-11-05T01:16:01.972Z,46.84
2023-11-05T01:18:30.424Z,46.79
2023-11-05T01:20:58.642Z,46.37
2023-11-05T01:23:26.754Z,46.13
2023-11-05T01:25:55.011Z,45.92
2023-11-05T01:28:23.329Z,45.63
2023-11-05T01:30:52.048Z,45.65
2023-11-05T01:33:20.557Z,45.52
2023-11-05T01:35:49.108Z,45.61
2023-11-05T01:38:17.322Z,45.73
2023-11-05T01:40:46.781Z,45.36
2023-11-05T01:43:15.111Z,45.24
2023-11-05T01:45:43.487Z,45.07
2023-11-05T01:48:13.221Z,45.04
2023-11-05T01:50:43.182Z,44.95
2023-11-05T01:53:11.690Z,44.96
2023-11-05T01:55:40.527Z,45.04
2023-11-05T01:58:09.516Z,45.12
2023-11-05T02:00:38.216Z,44.92
2023-11-05T02:03:07.059Z,44.82
2023-11-05T02:05:36.292Z,44.65
2023-11-05T02:08:04.914Z,44.59
2023-11-05T02:10:33.397Z,44.50
2023-11-05T02:13:02.952Z,44.37
2023-11-05T02:15:32.556Z,44.26
2023-11-05T02:18:01.740Z,44.05
2023-11-05T02:20:30.740Z,43.53
2023-11-05T02:23:01.835Z,43.18
2023-11-05T02:25:31.177Z,42.01
2023-11-05T02:27:59.611Z,41.51
2023-11-05T02:30:28.044Z,40.23
2023-11-05T02:32:56.496Z,38.53
2023-11-05T02:35:25.215Z,37.90
2023-11-05T02:37:54.007Z,37.15
2023-11-05T02:40:22.700Z,36.65
2023-11-05T02:42:51.126Z,36.15
2023-11-05T02:45:20.918Z,35.60
2023-11-05T02:47:49.939Z,35.76
2023-11-05T02:50:18.240Z,36.00
2023-11-05T02:52:46.608Z,36.12
2023-11-05T02:55:14.873Z,36.24
2023-11-05T02:57:43.283Z,36.45
2023-11-05T03:00:12.678Z,36.50
2023-11-05T03:02:41.643Z,36.55
2023-11-05T03:05:11.394Z,36.55
2023-11-05T03:07:40.135Z,36.67
2023-11-05T03:10:08.982Z,36.80
2023-11-05T03:12:38.895Z,36.87
2023-11-05T03:15:08.216Z,36.89
2023-11-05T03:17:36.472Z,36.91
2023-11-05T03:20:07.328Z,37.04
2023-11-05T03:22:36.512Z,37.07
2023-11-05T03:25:05.997Z,37.20
2023-11-05T03:27:34.942Z,37.17
2023-11-05T03:30:05.718Z,37.29
2023-11-05T03:32:33.964Z,37.39
2023-11-05T03:35:04.047Z,37.57
2023-11-05T03:37:32.776Z,37.59
2023-11-05T03:40:01.093Z,37.58
2023-11-05T03:42:29.503Z,37.77
2023-11-05T03:44:58.278Z,37.91
2023-11-05T03:47:26.773Z,38.07
2023-11-05T03:49:55.655Z,38.30
2023-11-05T03:52:25.254Z,38.52
2023-11-05T03:54:54.321Z,38.64
2023-11-05T03:57:23.077Z,38.75
2023-11-05T03:59:51.304Z,38.85
2023-11-05T04:02:22.442Z,38.88
2023-11-05T04:04:50.990Z,38.87
2023-11-05T04:07:19.300Z,38.86
2023-11-05T04:09:47.640Z,39.02
2023-11-05T04:12:16.047Z,39.13
2023-11-05T04:14:44.318Z,39.27
2023-11-05T04:17:12.617Z,39.41
2023-11-05T04:19:40.945Z,39.56
2023-11-05T04:22:09.526Z,39.74
2023-11-05T04:24:38.430Z,39.94
2023-11-05T04:27:07.046Z,40.11
2023-11-05T04:29:36.705Z,40.26
2023-11-05T04:32:05.554Z,40.35
2023-11-05T04:34:34.103Z,40.44
2023-11-05T04:37:02.837Z,40.51
2023-11-05T04:39:31.181Z,40.59
2023-11-05T04:41:59.586Z,40.68
2023-11-05T04:44:27.821Z,40.70
2023-11-05T04:46:56.029Z,40.69
2023-11-05T04:49:28.081Z,40.69
2023-11-05T04:51:56.558Z,40.66
2023-11-05T04:54:25.168Z,40.55
2023-11-05T04:56:53.807Z,40.53
2023-11-05T04:59:22.359Z,40.51
2023-11-05T05:01:51.541Z,40.49
2023-11-05T05:04:20.212Z,40.52
2023-11-05T05:06:48.629Z,40.52
2023-11-05T05:09:17.603Z,40.58
2023-11-05T05:11:45.881Z,40.63
2023-11-05T05:14:14.224Z,40.69
2023-11-05T05:16:42.602Z,40.75
2023-11-05T05:19:12.262Z,40.80
2023-11-05T05:21:44.893Z,40.90
2023-11-05T05:24:13.762Z,40.97
2023-11-05T05:26:42.229Z,40.98
2023-11-05T05:29:11.015Z,40.93
2023-11-05T05:31:39.327Z,41.04
2023-11-05T05:34:07.680Z,41.13
2023-11-05T05:36:36.145Z,41.17
2023-11-05T05:39:04.893Z,41.33
2023-11-05T05:41:33.193Z,41.40
2023-11-05T05:44:01.597Z,41.49
2023-11-05T05:46:30.152Z,41.50
2023-11-05T05:48:58.930Z,41.50
2023-11-05T05:51:28.271Z,41.50
2023-11-05T05:53:57.060Z,41.50
2023-11-05T05:56:25.636Z,41.54
2023-11-05T05:58:55.077Z,41.71
2023-11-05T06:01:23.618Z,41.88
2023-11-05T06:03:53.011Z,42.05
2023-11-05T06:06:24.419Z,42.21
2023-11-05T06:08:54.590Z,42.36
2023-11-05T06:11:22.932Z,42.47
2023-11-05T06:13:51.721Z,42.61
2023-11-05T06:16:20.048Z,42.72
2023-11-05T06:18:48.415Z,42.84
2023-11-05T06:21:17.152Z,42.93
2023-11-05T06:23:45.930Z,43.02
2023-11-05T06:26:14.283Z,43.11
2023-11-05T06:28:44.126Z,43.16
2023-11-05T06:31:12.498Z,43.18
2023-11-05T06:33:41.316Z,43.22
2023-11-05T06:36:10.373Z,43.26
2023-11-05T06:38:38.962Z,43.26
2023-11-05T06:41:07.224Z,43.30
2023-11-05T06:43:36.709Z,43.29
2023-11-05T06:46:05.897Z,43.31
2023-11-05T06:48:34.582Z,43.30
2023-11-05T06:51:03.428Z,43.24
2023-11-05T06:53:31.875Z,43.22
2023-11-05T06:56:00.365Z,43.18
2023-11-05T06:58:29.335Z,43.19
2023-11-05T07:00:57.573Z,43.18
2023-11-05T07:03:26.957Z,43.25
2023-11-05T07:05:55.971Z,43.61
2023-11-05T07:08:24.375Z,43.27
2023-11-05T07:10:52.676Z,42.48
2023-11-05T07:13:21.410Z,40.97
2023-11-05T07:15:49.735Z,39.67
2023-11-05T07:18:18.288Z,37.84
2023-11-05T07:20:47.352Z,35.85
2023-11-05T07:23:16.393Z,34.22
2023-11-05T07:25:45.213Z,33.91
2023-11-05T07:28:13.650Z,34.19
2023-11-05T07:30:42.021Z,34.01
2023-11-05T07:33:10.372Z,33.07
2023-11-05T07:35:38.929Z,32.29
2023-11-05T07:38:07.660Z,31.16
2023-11-05T07:40:36.628Z,29.56
2023-11-05T07:43:05.136Z,28.89
2023-11-05T07:45:33.826Z,28.41
2023-11-05T07:48:03.306Z,27.86
2023-11-05T07:50:32.545Z,26.67
2023-11-05T07:53:01.427Z,25.84
2023-11-05T07:55:29.781Z,25.30
2023-11-05T07:57:58.259Z,24.37
2023-11-05T08:00:29.156Z,23.36
2023-11-05T08:02:57.452Z,22.85
2023-11-05T08:05:26.756Z,21.71
2023-11-05T08:07:55.807Z,21.66
2023-11-05T08:10:25.436Z,21.44
2023-11-05T08:12:54.292Z,20.76
2023-11-05T08:15:22.904Z,19.65
2023-11-05T08:17:51.187Z,19.80
2023-11-05T08:20:19.630Z,19.34
2023-11-05T08:22:48.466Z,18.62
2023-11-05T08:25:16.911Z,17.71
2023-11-05T08:27:45.698Z,17.01
2023-11-05T08:30:18.174Z,16.80
2023-11-05T08:32:46.409Z,16.79
2023-11-05T08:35:15.090Z,16.02
2023-11-05T08:37:43.651Z,15.62
2023-11-05T08:40:12.474Z,15.64
2023-11-05T08:42:41.102Z,15.07
2023-11-05T08:45:10.305Z,15.08
2023-11-05T08:47:38.571Z,16.06
2023-11-05T08:50:07.947Z,17.06
2023-11-05T08:52:37.109Z,17.87
2023-11-05T08:55:06.268Z,18.41
2023-11-05T08:57:34.633Z,18.88
2023-11-05T09:00:03.272Z,19.15
2023-11-05T09:02:31.647Z,18.61
2023-11-05T09:04:59.951Z,18.22
2023-11-05T09:07:28.373Z,17.82
2023-11-05T09:09:56.644Z,16.94
2023-11-05T09:12:24.990Z,16.38
2023-11-05T09:14:53.468Z,16.22
2023-11-05T09:17:22.400Z,16.04
2023-11-05T09:19:51.122Z,15.41
2023-11-05T09:22:21.750Z,15.07
2023-11-05T09:24:50.552Z,14.86
2023-11-05T09:27:19.083Z,14.57
2023-11-05T09:29:47.417Z,14.17
2023-11-05T09:32:15.809Z,13.91
2023-11-05T09:34:44.339Z,13.62
2023-11-05T09:37:14.389Z,13.22
2023-11-05T09:39:45.384Z,13.14
2023-11-05T09:42:17.649Z,12.86
2023-11-05T09:44:46.234Z,12.65
2023-11-05T09:47:15.901Z,12.67
2023-11-05T09:49:44.322Z,12.56
2023-11-05T09:52:13.505Z,12.47
2023-11-05T09:54:45.248Z,12.55
2023-11-05T09:57:13.581Z,12.35
2023-11-05T09:59:45.646Z,12.00
2023-11-05T10:02:14.406Z,12.20
2023-11-05T10:04:42.899Z,11.92
2023-11-05T10:07:12.858Z,11.75
2023-11-05T10:09:41.542Z,11.67
2023-11-05T10:12:11.010Z,11.48
2023-11-05T10:14:39.257Z,11.34
2023-11-05T10:17:07.924Z,11.16
2023-11-05T10:19:36.179Z,10.90
2023-11-05T10:22:16.297Z,10.90
2023-11-05T10:24:44.510Z,11.12
2023-11-05T10:27:28.131Z,10.87
2023-11-05T10:30:01.938Z,10.88
2023-11-05T10:32:32.406Z,10.98
2023-11-05T10:35:02.479Z,10.96
2023-11-05T10:37:30.768Z,10.90
2023-11-05T10:39:59.221Z,10.92
2023-11-05T10:42:27.836Z,10.94
2023-11-05T10:44:56.400Z,11.11
2023-11-05T10:47:24.917Z,11.10
2023-11-05T10:49:54.095Z,11.06
2023-11-05T10:52:29.955Z,10.97
2023-11-05T10:55:06.307Z,11.09
2023-11-05T10:57:48.944Z,11.21
2023-11-05T11:00:36.752Z,11.26
2023-11-05T11:03:12.743Z,11.42
2023-11-05T11:05:44.729Z,11.39
2023-11-05T11:08:14.964Z,11.39
2023-11-05T11:10:47.460Z,11.57
2023-11-05T11:13:31.979Z,11.81
2023-11-05T11:16:00.868Z,12.07
2023-11-05T11:18:32.460Z,12.11
2023-11-05T11:21:02.979Z,12.25
2023-11-05T11:23:31.576Z,12.38
2023-11-05T11:25:59.786Z,12.47
2023-11-05T11:28:29.553Z,12.68
2023-11-05T11:30:58.728Z,12.87
2023-11-05T11:33:27.855Z,13.04
2023-11-05T11:35:58.195Z,13.34
2023-11-05T11:38:27.212Z,13.61
2023-11-05T11:40:56.182Z,13.84
2023-11-05T11:43:25.700Z,14.01
2023-11-05T11:45:54.882Z,14.22
2023-11-05T11:48:23.820Z,14.66
2023-11-05T11:51:00.160Z,15.00
2023-11-05T11:53:34.854Z,15.34
2023-11-05T11:56:04.099Z,15.74
2023-11-05T11:58:38.392Z,16.01
2023-11-05T12:01:14.331Z,16.14
2023-11-05T12:03:43.983Z,16.41
2023-11-05T12:06:13.830Z,16.59
2023-11-05T12:08:44.180Z,16.66
2023-11-05T12:11:15.153Z,16.90
2023-11-05T12:13:43.920Z,16.82
2023-11-05T12:16:14.903Z,16.89
2023-11-05T12:18:45.447Z,17.14
2023-11-05T12:21:16.143Z,17.30
2023-11-05T12:23:45.666Z,17.31
2023-11-05T12:26:14.240Z,17.39
2023-11-05T12:28:42.814Z,17.56
2023-11-05T12:31:11.306Z,17.64
2023-11-05T12:33:41.462Z,17.64
2023-11-05T12:36:10.267Z,17.72
2023-11-05T12:38:38.905Z,17.59
2023-11-05T12:41:07.973Z,17.53
2023-11-05T12:43:36.722Z,17.55
2023-11-05T12:46:05.387Z,17.65
2023-11-05T12:48:34.812Z,17.77
2023-11-05T12:51:04.807Z,17.75
2023-11-05T12:53:34.227Z,17.92
2023-11-05T12:56:09.767Z,17.87
2023-11-05T12:58:38.953Z,17.79
2023-11-05T13:01:07.830Z,17.52
2023-11-05T13:03:37.548Z,17.42
2023-11-05T13:06:08.593Z,17.49
2023-11-05T13:08:38.798Z,17.70
2023-11-05T13:11:07.608Z,17.97
2023-11-05T13:13:36.509Z,18.15
2023-11-05T13:16:05.641Z,18.25
2023-11-05T13:18:34.001Z,18.42
2023-11-05T13:21:02.512Z,18.49
2023-11-05T13:23:31.504Z,18.59
2023-11-05T13:26:00.135Z,18.59
2023-11-05T13:28:29.233Z,18.72
2023-11-05T13:30:59.542Z,18.81
2023-11-05T13:33:27.985Z,18.85
2023-11-05T13:35:56.789Z,18.88
2023-11-05T13:38:25.397Z,18.84
2023-11-05T13:40:53.680Z,18.89
2023-11-05T13:43:22.278Z,18.95
2023-11-05T13:45:52.035Z,18.99
2023-11-05T13:48:20.585Z,18.98
2023-11-05T13:50:49.223Z,19.07
2023-11-05T13:53:17.847Z,19.17
2023-11-05T13:55:46.308Z,19.21
2023-11-05T13:58:15.024Z,19.39
2023-11-05T14:00:43.547Z,19.55
2023-11-05T14:03:12.153Z,19.56
2023-11-05T14:05:42.193Z,19.70
2023-11-05T14:08:10.981Z,19.70
2023-11-05T14:10:41.236Z,19.68
2023-11-05T14:13:09.570Z,19.79
2023-11-05T14:15:38.129Z,19.85
2023-11-05T14:18:06.794Z,19.73
2023-11-05T14:20:36.401Z,19.93
2023-11-05T14:23:05.933Z,19.96
2023-11-05T14:25:34.640Z,19.97
2023-11-05T14:28:03.600Z,20.07
2023-11-05T14:30:32.228Z,20.16
2023-11-05T14:33:02.429Z,20.21
2023-11-05T14:35:33.022Z,20.42
2023-11-05T14:38:01.575Z,20.53
2023-11-05T14:40:30.005Z,20.66
2023-11-05T14:42:58.794Z,20.66
2023-11-05T14:45:28.526Z,20.80
2023-11-05T14:47:57.476Z,20.86
2023-11-05T14:50:26.020Z,20.86
2023-11-05T14:52:54.449Z,20.90
2023-11-05T14:55:22.926Z,20.96
2023-11-05T14:57:51.324Z,21.17
2023-11-05T15:00:19.831Z,21.26
2023-11-05T15:02:50.673Z,21.48
2023-11-05T15:05:20.446Z,21.67
2023-11-05T15:07:49.171Z,21.89
2023-11-05T15:10:18.079Z,21.95
2023-11-05T15:12:46.831Z,21.94
2023-11-05T15:15:15.611Z,21.91
2023-11-05T15:17:44.224Z,22.02
2023-11-05T15:20:13.403Z,21.94
2023-11-05T15:22:42.090Z,22.04
2023-11-05T15:25:11.275Z,22.04
2023-11-05T15:27:40.014Z,22.17
2023-11-05T15:30:09.207Z,22.28
2023-11-05T15:32:37.417Z,22.34
2023-11-05T15:35:06.974Z,22.09
2023-11-05T15:37:35.591Z,22.20
2023-11-05T15:40:04.247Z,22.36
2023-11-05T15:42:32.655Z,22.43
2023-11-05T15:45:06.438Z,22.58
2023-11-05T15:47:35.468Z,22.64
2023-11-05T15:50:04.334Z,22.77
2023-11-05T15:52:33.092Z,22.81
2023-11-05T15:55:02.858Z,22.91
2023-11-05T15:57:31.266Z,22.96
2023-11-05T15:59:59.778Z,23.28
2023-11-05T16:02:29.111Z,23.34
2023-11-05T16:04:57.701Z,23.34
2023-11-05T16:07:26.197Z,23.35
2023-11-05T16:09:54.632Z,23.28
2023-11-05T16:12:23.162Z,23.51
2023-11-05T16:14:51.652Z,23.59
2023-11-05T16:17:21.012Z,23.57
2023-11-05T16:19:49.627Z,23.60
2023-11-05T16:22:19.318Z,23.64
2023-11-05T16:24:47.909Z,23.77
2023-11-05T16:27:17.329Z,23.93
2023-11-05T16:29:52.102Z,23.96
2023-11-05T16:32:20.882Z,23.98
2023-11-05T16:34:49.794Z,24.07
2023-11-05T16:37:18.353Z,24.19
2023-11-05T16:39:46.542Z,24.30
2023-11-05T16:42:14.791Z,25.78
2023-11-05T16:44:43.376Z,30.21
2023-11-05T16:47:12.247Z,32.26
2023-11-05T16:49:41.481Z,34.11
2023-11-05T16:52:11.074Z,36.42
2023-11-05T16:54:40.542Z,37.42
2023-11-05T16:57:09.079Z,37.94
2023-11-05T16:59:37.492Z,39.68
2023-11-05T17:02:05.957Z,40.28
2023-11-05T17:04:34.807Z,41.72
2023-11-05T17:07:06.069Z,41.60
2023-11-05T17:09:35.021Z,42.23
2023-11-05T17:12:03.420Z,42.81
2023-11-05T17:14:31.913Z,42.88
2023-11-05T17:17:00.401Z,43.94
2023-11-05T17:19:29.115Z,45.16
2023-11-05T17:21:57.938Z,47.39
2023-11-05T17:24:26.414Z,49.22
2023-11-05T17:26:55.298Z,49.63
2023-11-05T17:29:24.875Z,50.45
2023-11-05T17:31:53.209Z,50.76
2023-11-05T17:34:22.010Z,50.77
2023-11-05T17:36:50.631Z,50.71
2023-11-05T17:39:19.121Z,50.84
2023-11-05T17:41:48.756Z,50.56
2023-11-05T17:44:19.701Z,50.62
2023-11-05T17:46:49.690Z,50.29
2023-11-05T17:49:18.294Z,50.56
2023-11-05T17:51:46.896Z,51.01
2023-11-05T17:54:16.335Z,51.25
2023-11-05T17:56:44.973Z,51.76
2023-11-05T17:59:19.819Z,51.88
2023-11-05T18:01:53.719Z,51.95
2023-11-05T18:04:22.756Z,52.39
2023-11-05T18:06:51.245Z,52.89
2023-11-05T18:09:19.941Z,53.20
2023-11-05T18:11:49.617Z,53.04
2023-11-05T18:14:19.124Z,52.87
2023-11-05T18:16:47.944Z,53.09
2023-11-05T18:19:16.770Z,53.39
2023-11-05T18:21:45.268Z,53.62
2023-11-05T18:24:13.811Z,53.89
2023-11-05T18:26:42.326Z,53.61
2023-11-05T18:29:11.827Z,53.27
2023-11-05T18:31:40.493Z,52.71
2023-11-05T18:34:08.961Z,52.22
2023-11-05T18:36:40.965Z,51.75
2023-11-05T18:39:10.896Z,51.32
2023-11-05T18:41:45.940Z,51.23
2023-11-05T18:44:42.769Z,50.94
2023-11-05T18:47:15.372Z,50.48
2023-11-05T18:49:44.380Z,49.89
2023-11-05T18:52:12.798Z,49.33
2023-11-05T18:54:42.907Z,49.09
2023-11-05T18:57:11.529Z,48.37
2023-11-05T18:59:40.090Z,47.65
2023-11-05T19:02:09.356Z,46.81
2023-11-05T19:04:40.846Z,46.17
2023-11-05T19:07:09.980Z,45.45
2023-11-05T19:09:42.081Z,45.21
2023-11-05T19:12:11.540Z,44.51
2023-11-05T19:14:43.735Z,43.95
2023-11-05T19:17:12.137Z,43.85
2023-11-05T19:19:41.803Z,43.72
2023-11-05T19:22:10.732Z,43.52
2023-11-05T19:24:39.302Z,43.31
2023-11-05T19:27:08.112Z,43.07
2023-11-05T19:29:38.833Z,43.13
2023-11-05T19:32:08.916Z,43.07
2023-11-05T19:34:37.717Z,42.96
2023-11-05T19:37:06.754Z,42.95
2023-11-05T19:39:37.727Z,42.95
2023-11-05T19:42:06.109Z,42.95
2023-11-05T19:44:35.034Z,42.95
2023-11-05T19:47:06.470Z,43.05
2023-11-05T19:49:36.462Z,43.04
2023-11-05T19:52:06.543Z,42.82
2023-11-05T19:54:36.168Z,42.85
2023-11-05T19:57:05.183Z,43.20
2023-11-05T19:59:34.714Z,43.91
2023-11-05T20:02:11.413Z,44.71
2023-11-05T20:04:46.721Z,44.82
2023-11-05T20:07:15.883Z,44.97
2023-11-05T20:09:45.369Z,45.02
2023-11-05T20:12:14.487Z,44.84
2023-11-05T20:14:42.858Z,44.72
2023-11-05T20:17:12.467Z,44.53
2023-11-05T20:19:41.304Z,44.55
2023-11-05T20:22:10.114Z,44.08
2023-11-05T20:24:38.254Z,43.59
2023-11-05T20:27:07.955Z,43.46
2023-11-05T20:29:36.863Z,43.54
2023-11-05T20:32:06.799Z,43.06
2023-11-05T20:34:36.101Z,43.07
2023-11-05T20:37:04.576Z,43.26
2023-11-05T20:39:34.548Z,43.18
2023-11-05T20:42:03.197Z,42.63
2023-11-05T20:44:31.407Z,43.15
2023-11-05T20:47:00.790Z,43.34
2023-11-05T20:49:30.118Z,43.70
2023-11-05T20:51:58.355Z,44.12
2023-11-05T20:54:27.067Z,44.02
2023-11-05T20:56:55.562Z,44.06
2023-11-05T20:59:23.829Z,43.85
2023-11-05T21:01:53.728Z,43.67
2023-11-05T21:04:24.297Z,43.72
2023-11-05T21:06:53.371Z,43.44
2023-11-05T21:09:21.843Z,43.34
2023-11-05T21:11:50.287Z,43.32
2023-11-05T21:14:18.766Z,43.14
2023-11-05T21:16:47.028Z,43.03
2023-11-05T21:19:16.817Z,42.92
2023-11-05T21:21:45.775Z,42.69
2023-11-05T21:24:14.191Z,42.69
2023-11-05T21:26:42.637Z,42.52
2023-11-05T21:29:10.990Z,42.53
2023-11-05T21:31:39.320Z,42.55
2023-11-05T21:34:07.745Z,42.54
2023-11-05T21:36:36.468Z,42.49
2023-11-05T21:39:04.736Z,42.38
2023-11-05T21:41:34.058Z,42.47
2023-11-05T21:44:02.894Z,42.40
2023-11-05T21:46:32.183Z,42.40
2023-11-05T21:49:01.294Z,42.37
2023-11-05T21:51:29.467Z,42.38
2023-11-05T21:53:58.299Z,42.31
2023-11-05T21:56:26.922Z,42.25
2023-11-05T21:58:55.212Z,42.20
2023-11-05T22:01:23.470Z,42.20
2023-11-05T22:03:52.326Z,42.15
2023-11-05T22:06:20.882Z,42.06
2023-11-05T22:08:49.271Z,42.11
2023-11-05T22:11:18.269Z,42.03
2023-11-05T22:13:47.110Z,41.95
2023-11-05T22:16:17.487Z,41.98
2023-11-05T22:18:46.250Z,42.01
2023-11-05T22:21:15.558Z,42.06
2023-11-05T22:23:43.929Z,42.19
2023-11-05T22:26:13.056Z,42.64
2023-11-05T22:28:41.571Z,42.89
2023-11-05T22:31:20.253Z,43.05
2023-11-05T22:33:48.876Z,43.25
2023-11-05T22:36:17.929Z,43.29
2023-11-05T22:38:46.620Z,43.20
2023-11-05T22:41:16.966Z,43.24
2023-11-05T22:43:45.354Z,43.20
2023-11-05T22:46:14.423Z,43.08
2023-11-05T22:48:42.769Z,43.15
2023-11-05T22:51:21.478Z,43.17
2023-11-05T22:53:49.867Z,43.19
2023-11-05T22:56:18.177Z,43.24
2023-11-05T22:58:46.773Z,43.28
2023-11-05T23:01:15.156Z,43.29
2023-11-05T23:03:44.055Z,43.33
2023-11-05T23:06:13.488Z,43.41
2023-11-05T23:08:43.024Z,43.43
2023-11-05T23:11:12.730Z,43.47
2023-11-05T23:13:41.237Z,43.50
2023-11-05T23:16:09.828Z,43.57
2023-11-05T23:18:38.419Z,43.69
2023-11-05T23:21:07.725Z,43.74
2023-11-05T23:23:36.162Z,43.83
2023-11-05T23:26:05.071Z,43.93
2023-11-05T23:28:33.629Z,44.15
2023-11-05T23:31:02.378Z,44.19
2023-11-05T23:33:32.307Z,44.21
2023-11-05T23:36:00.788Z,44.34
2023-11-05T23:38:28.955Z,44.50
2023-11-05T23:40:57.116Z,44.57
2023-11-05T23:43:26.623Z,44.63
2023-11-05T23:45:55.328Z,44.76
2023-11-05T23:48:24.280Z,44.87
2023-11-05T23:50:53.420Z,44.89
2023-11-05T23:53:21.794Z,44.82
2023-11-05T23:55:50.243Z,44.92
2023-11-05T23:58:18.632Z,44.99
